sensor_id;sensor_type;location;lat;lon;timestamp;pressure;altitude;pressure_sealevel;temperature
15607;BMP180;7865;50.918;4.510;2023-08-30T00:04:20;100379.00;;;12.50
15607;BMP180;7865;50.918;4.510;2023-08-30T00:09:22;100368.00;;;12.60
15607;BMP180;7865;50.918;4.510;2023-08-30T00:14:23;100380.00;;;12.60
15607;BMP180;7865;50.918;4.510;2023-08-30T00:19:25;100367.00;;;12.60
15607;BMP180;7865;50.918;4.510;2023-08-30T00:24:26;100363.00;;;12.60
15607;BMP180;7865;50.918;4.510;2023-08-30T00:29:28;100355.00;;;12.70
15607;BMP180;7865;50.918;4.510;2023-08-30T00:34:29;100358.00;;;12.80
15607;BMP180;7865;50.918;4.510;2023-08-30T00:39:31;100344.00;;;12.70
15607;BMP180;7865;50.918;4.510;2023-08-30T00:44:34;100340.00;;;12.60
15607;BMP180;7865;50.918;4.510;2023-08-30T00:49:36;100333.00;;;12.50
15607;BMP180;7865;50.918;4.510;2023-08-30T00:54:38;100324.00;;;12.40
15607;BMP180;7865;50.918;4.510;2023-08-30T00:59:40;100319.00;;;12.30
15607;BMP180;7865;50.918;4.510;2023-08-30T01:04:41;100330.00;;;12.20
15607;BMP180;7865;50.918;4.510;2023-08-30T01:09:42;100315.00;;;12.10
15607;BMP180;7865;50.918;4.510;2023-08-30T01:14:59;100307.00;;;12.10
15607;BMP180;7865;50.918;4.510;2023-08-30T01:20:05;100312.00;;;12.10
15607;BMP180;7865;50.918;4.510;2023-08-30T01:25:42;100305.00;;;12.00
15607;BMP180;7865;50.918;4.510;2023-08-30T01:30:45;100314.00;;;12.00
15607;BMP180;7865;50.918;4.510;2023-08-30T01:35:47;100311.00;;;11.90
15607;BMP180;7865;50.918;4.510;2023-08-30T01:40:49;100308.00;;;11.90
15607;BMP180;7865;50.918;4.510;2023-08-30T01:45:52;100308.00;;;11.80
15607;BMP180;7865;50.918;4.510;2023-08-30T01:50:54;100308.00;;;11.80
15607;BMP180;7865;50.918;4.510;2023-08-30T01:55:59;100313.00;;;11.80
15607;BMP180;7865;50.918;4.510;2023-08-30T02:01:01;100291.00;;;11.90
15607;BMP180;7865;50.918;4.510;2023-08-30T02:06:07;100297.00;;;12.00
15607;BMP180;7865;50.918;4.510;2023-08-30T02:11:19;100295.00;;;12.20
15607;BMP180;7865;50.918;4.510;2023-08-30T02:16:21;100295.00;;;12.30
15607;BMP180;7865;50.918;4.510;2023-08-30T02:21:23;100297.00;;;12.50
15607;BMP180;7865;50.918;4.510;2023-08-30T02:26:25;100288.00;;;12.70
15607;BMP180;7865;50.918;4.510;2023-08-30T02:31:26;100288.00;;;12.80
15607;BMP180;7865;50.918;4.510;2023-08-30T02:36:28;100281.00;;;12.90
15607;BMP180;7865;50.918;4.510;2023-08-30T02:41:31;100283.00;;;13.00
15607;BMP180;7865;50.918;4.510;2023-08-30T02:46:32;100278.00;;;13.10
15607;BMP180;7865;50.918;4.510;2023-08-30T02:51:33;100267.00;;;13.10
15607;BMP180;7865;50.918;4.510;2023-08-30T02:56:35;100269.00;;;13.20
15607;BMP180;7865;50.918;4.510;2023-08-30T03:01:37;100258.00;;;13.20
15607;BMP180;7865;50.918;4.510;2023-08-30T03:06:39;100262.00;;;13.30
15607;BMP180;7865;50.918;4.510;2023-08-30T03:11:40;100263.00;;;13.30
15607;BMP180;7865;50.918;4.510;2023-08-30T03:16:42;100248.00;;;13.30
15607;BMP180;7865;50.918;4.510;2023-08-30T03:21:46;100239.00;;;13.40
15607;BMP180;7865;50.918;4.510;2023-08-30T03:26:47;100235.00;;;13.40
15607;BMP180;7865;50.918;4.510;2023-08-30T03:31:49;100222.00;;;13.40
15607;BMP180;7865;50.918;4.510;2023-08-30T03:36:50;100220.00;;;13.50
15607;BMP180;7865;50.918;4.510;2023-08-30T03:41:55;100210.00;;;13.60
15607;BMP180;7865;50.918;4.510;2023-08-30T03:46:57;100203.00;;;13.60
15607;BMP180;7865;50.918;4.510;2023-08-30T03:51:58;100193.00;;;13.60
15607;BMP180;7865;50.918;4.510;2023-08-30T03:57:01;100201.00;;;13.60
15607;BMP180;7865;50.918;4.510;2023-08-30T04:02:02;100187.00;;;13.60
15607;BMP180;7865;50.918;4.510;2023-08-30T04:07:04;100179.00;;;13.60
15607;BMP180;7865;50.918;4.510;2023-08-30T04:12:05;100176.00;;;13.60
15607;BMP180;7865;50.918;4.510;2023-08-30T04:17:07;100171.00;;;13.60
15607;BMP180;7865;50.918;4.510;2023-08-30T04:22:08;100173.00;;;13.60
15607;BMP180;7865;50.918;4.510;2023-08-30T04:27:10;100168.00;;;13.70
15607;BMP180;7865;50.918;4.510;2023-08-30T04:32:11;100166.00;;;13.70
15607;BMP180;7865;50.918;4.510;2023-08-30T04:37:12;100162.00;;;13.70
15607;BMP180;7865;50.918;4.510;2023-08-30T04:42:16;100158.00;;;13.70
15607;BMP180;7865;50.918;4.510;2023-08-30T04:47:17;100146.00;;;13.80
15607;BMP180;7865;50.918;4.510;2023-08-30T04:52:19;100148.00;;;13.80
15607;BMP180;7865;50.918;4.510;2023-08-30T04:57:20;100143.00;;;13.80
15607;BMP180;7865;50.918;4.510;2023-08-30T05:02:22;100140.00;;;13.70
15607;BMP180;7865;50.918;4.510;2023-08-30T05:07:33;100137.00;;;13.50
15607;BMP180;7865;50.918;4.510;2023-08-30T05:12:35;100133.00;;;13.40
15607;BMP180;7865;50.918;4.510;2023-08-30T05:17:37;100131.00;;;13.40
15607;BMP180;7865;50.918;4.510;2023-08-30T05:22:39;100127.00;;;13.40
15607;BMP180;7865;50.918;4.510;2023-08-30T05:27:40;100131.00;;;13.40
15607;BMP180;7865;50.918;4.510;2023-08-30T05:32:43;100127.00;;;13.50
15607;BMP180;7865;50.918;4.510;2023-08-30T05:38:07;100121.00;;;13.50
15607;BMP180;7865;50.918;4.510;2023-08-30T05:43:16;100119.00;;;13.60
15607;BMP180;7865;50.918;4.510;2023-08-30T05:48:18;100118.00;;;13.60
15607;BMP180;7865;50.918;4.510;2023-08-30T05:53:20;100109.00;;;13.60
15607;BMP180;7865;50.918;4.510;2023-08-30T05:58:22;100100.00;;;13.60
15607;BMP180;7865;50.918;4.510;2023-08-30T06:03:24;100084.00;;;13.70
15607;BMP180;7865;50.918;4.510;2023-08-30T06:08:25;100090.00;;;13.70
15607;BMP180;7865;50.918;4.510;2023-08-30T06:13:26;100094.00;;;13.70
15607;BMP180;7865;50.918;4.510;2023-08-30T06:18:31;100091.00;;;13.90
15607;BMP180;7865;50.918;4.510;2023-08-30T06:23:38;100084.00;;;14.00
15607;BMP180;7865;50.918;4.510;2023-08-30T06:28:39;100078.00;;;14.30
15607;BMP180;7865;50.918;4.510;2023-08-30T06:33:43;100082.00;;;14.50
15607;BMP180;7865;50.918;4.510;2023-08-30T06:38:45;100088.00;;;14.30
15607;BMP180;7865;50.918;4.510;2023-08-30T06:43:46;100082.00;;;14.10
15607;BMP180;7865;50.918;4.510;2023-08-30T06:48:47;100075.00;;;14.00
15607;BMP180;7865;50.918;4.510;2023-08-30T06:53:50;100080.00;;;14.00
15607;BMP180;7865;50.918;4.510;2023-08-30T06:58:52;100077.00;;;14.00
15607;BMP180;7865;50.918;4.510;2023-08-30T07:03:53;100074.00;;;14.20
15607;BMP180;7865;50.918;4.510;2023-08-30T07:08:55;100073.00;;;14.30
15607;BMP180;7865;50.918;4.510;2023-08-30T07:13:56;100077.00;;;14.30
15607;BMP180;7865;50.918;4.510;2023-08-30T07:18:58;100082.00;;;14.40
15607;BMP180;7865;50.918;4.510;2023-08-30T07:23:59;100080.00;;;14.50
15607;BMP180;7865;50.918;4.510;2023-08-30T07:29:01;100087.00;;;14.40
15607;BMP180;7865;50.918;4.510;2023-08-30T07:34:07;100096.00;;;14.30
15607;BMP180;7865;50.918;4.510;2023-08-30T07:39:09;100095.00;;;14.40
15607;BMP180;7865;50.918;4.510;2023-08-30T07:44:10;100092.00;;;14.30
15607;BMP180;7865;50.918;4.510;2023-08-30T07:49:12;100094.00;;;14.60
15607;BMP180;7865;50.918;4.510;2023-08-30T07:54:13;100081.00;;;14.80
15607;BMP180;7865;50.918;4.510;2023-08-30T07:59:14;100085.00;;;14.90
15607;BMP180;7865;50.918;4.510;2023-08-30T08:04:16;100080.00;;;14.90
15607;BMP180;7865;50.918;4.510;2023-08-30T08:09:17;100085.00;;;14.90
15607;BMP180;7865;50.918;4.510;2023-08-30T08:14:19;100089.00;;;14.90
15607;BMP180;7865;50.918;4.510;2023-08-30T08:19:20;100086.00;;;15.00
15607;BMP180;7865;50.918;4.510;2023-08-30T08:24:26;100077.00;;;15.60
15607;BMP180;7865;50.918;4.510;2023-08-30T08:29:30;100081.00;;;15.60
15607;BMP180;7865;50.918;4.510;2023-08-30T08:34:35;100087.00;;;15.80
15607;BMP180;7865;50.918;4.510;2023-08-30T08:39:36;100080.00;;;16.20
15607;BMP180;7865;50.918;4.510;2023-08-30T08:44:38;100090.00;;;16.30
15607;BMP180;7865;50.918;4.510;2023-08-30T08:49:42;100093.00;;;16.40
15607;BMP180;7865;50.918;4.510;2023-08-30T08:54:43;100095.00;;;16.30
15607;BMP180;7865;50.918;4.510;2023-08-30T08:59:45;100096.00;;;16.70
15607;BMP180;7865;50.918;4.510;2023-08-30T09:04:47;100096.00;;;17.00
15607;BMP180;7865;50.918;4.510;2023-08-30T09:09:49;100085.00;;;18.30
15607;BMP180;7865;50.918;4.510;2023-08-30T09:14:54;100086.00;;;19.10
15607;BMP180;7865;50.918;4.510;2023-08-30T09:20:08;100093.00;;;19.50
15607;BMP180;7865;50.918;4.510;2023-08-30T09:25:23;100084.00;;;19.70
15607;BMP180;7865;50.918;4.510;2023-08-30T09:30:27;100092.00;;;20.20
15607;BMP180;7865;50.918;4.510;2023-08-30T09:35:29;100092.00;;;20.20
15607;BMP180;7865;50.918;4.510;2023-08-30T09:40:30;100091.00;;;20.30
15607;BMP180;7865;50.918;4.510;2023-08-30T09:45:32;100088.00;;;20.30
15607;BMP180;7865;50.918;4.510;2023-08-30T09:50:35;100088.00;;;19.70
15607;BMP180;7865;50.918;4.510;2023-08-30T09:55:37;100092.00;;;19.00
15607;BMP180;7865;50.918;4.510;2023-08-30T10:00:39;100086.00;;;18.00
15607;BMP180;7865;50.918;4.510;2023-08-30T10:05:41;100091.00;;;17.60
15607;BMP180;7865;50.918;4.510;2023-08-30T10:10:43;100107.00;;;17.20
15607;BMP180;7865;50.918;4.510;2023-08-30T10:15:46;100109.00;;;17.10
15607;BMP180;7865;50.918;4.510;2023-08-30T10:20:49;100118.00;;;17.00
15607;BMP180;7865;50.918;4.510;2023-08-30T10:25:54;100103.00;;;17.40
15607;BMP180;7865;50.918;4.510;2023-08-30T10:30:56;100107.00;;;18.00
15607;BMP180;7865;50.918;4.510;2023-08-30T10:36:07;100094.00;;;18.90
15607;BMP180;7865;50.918;4.510;2023-08-30T10:41:08;100089.00;;;19.30
15607;BMP180;7865;50.918;4.510;2023-08-30T10:46:10;100088.00;;;19.90
15607;BMP180;7865;50.918;4.510;2023-08-30T10:51:35;100087.00;;;20.90
15607;BMP180;7865;50.918;4.510;2023-08-30T10:56:47;100088.00;;;21.50
15607;BMP180;7865;50.918;4.510;2023-08-30T11:01:52;100094.00;;;20.70
15607;BMP180;7865;50.918;4.510;2023-08-30T11:06:55;100095.00;;;20.00
15607;BMP180;7865;50.918;4.510;2023-08-30T11:12:04;100096.00;;;19.80
15607;BMP180;7865;50.918;4.510;2023-08-30T11:17:10;100091.00;;;20.10
15607;BMP180;7865;50.918;4.510;2023-08-30T11:22:14;100094.00;;;20.80
15607;BMP180;7865;50.918;4.510;2023-08-30T11:27:18;100090.00;;;21.20
15607;BMP180;7865;50.918;4.510;2023-08-30T11:32:20;100074.00;;;21.60
15607;BMP180;7865;50.918;4.510;2023-08-30T11:37:21;100078.00;;;21.70
15607;BMP180;7865;50.918;4.510;2023-08-30T11:42:23;100074.00;;;21.30
15607;BMP180;7865;50.918;4.510;2023-08-30T11:47:25;100090.00;;;21.40
15607;BMP180;7865;50.918;4.510;2023-08-30T11:52:28;100075.00;;;21.20
15607;BMP180;7865;50.918;4.510;2023-08-30T11:57:33;100074.00;;;21.80
15607;BMP180;7865;50.918;4.510;2023-08-30T12:02:35;100084.00;;;23.40
15607;BMP180;7865;50.918;4.510;2023-08-30T12:07:37;100086.00;;;22.90
15607;BMP180;7865;50.918;4.510;2023-08-30T12:12:44;100100.00;;;22.90
15607;BMP180;7865;50.918;4.510;2023-08-30T12:17:46;100111.00;;;21.70
15607;BMP180;7865;50.918;4.510;2023-08-30T12:22:47;100105.00;;;20.80
15607;BMP180;7865;50.918;4.510;2023-08-30T12:27:50;100102.00;;;21.50
15607;BMP180;7865;50.918;4.510;2023-08-30T12:33:00;100101.00;;;22.70
15607;BMP180;7865;50.918;4.510;2023-08-30T12:38:03;100102.00;;;22.00
15607;BMP180;7865;50.918;4.510;2023-08-30T12:43:04;100104.00;;;22.40
15607;BMP180;7865;50.918;4.510;2023-08-30T12:48:06;100086.00;;;22.90
15607;BMP180;7865;50.918;4.510;2023-08-30T12:53:08;100102.00;;;21.70
15607;BMP180;7865;50.918;4.510;2023-08-30T12:58:10;100106.00;;;20.70
15607;BMP180;7865;50.918;4.510;2023-08-30T13:03:12;100107.00;;;20.00
15607;BMP180;7865;50.918;4.510;2023-08-30T13:08:14;100120.00;;;21.50
15607;BMP180;7865;50.918;4.510;2023-08-30T13:13:16;100104.00;;;22.40
15607;BMP180;7865;50.918;4.510;2023-08-30T13:18:18;100106.00;;;22.00
15607;BMP180;7865;50.918;4.510;2023-08-30T13:23:19;100112.00;;;20.90
15607;BMP180;7865;50.918;4.510;2023-08-30T13:28:21;100112.00;;;20.40
15607;BMP180;7865;50.918;4.510;2023-08-30T13:33:23;100117.00;;;21.10
15607;BMP180;7865;50.918;4.510;2023-08-30T13:38:24;100112.00;;;21.00
15607;BMP180;7865;50.918;4.510;2023-08-30T13:43:26;100104.00;;;21.90
15607;BMP180;7865;50.918;4.510;2023-08-30T13:48:28;100112.00;;;21.30
15607;BMP180;7865;50.918;4.510;2023-08-30T13:53:29;100109.00;;;20.50
15607;BMP180;7865;50.918;4.510;2023-08-30T13:58:31;100129.00;;;20.00
15607;BMP180;7865;50.918;4.510;2023-08-30T14:03:32;100133.00;;;20.00
15607;BMP180;7865;50.918;4.510;2023-08-30T14:08:34;100123.00;;;20.80
15607;BMP180;7865;50.918;4.510;2023-08-30T14:13:36;100127.00;;;22.60
15607;BMP180;7865;50.918;4.510;2023-08-30T14:18:37;100135.00;;;22.10
15607;BMP180;7865;50.918;4.510;2023-08-30T14:23:38;100138.00;;;21.20
15607;BMP180;7865;50.918;4.510;2023-08-30T14:28:40;100113.00;;;23.30
15607;BMP180;7865;50.918;4.510;2023-08-30T14:33:43;100150.00;;;22.10
15607;BMP180;7865;50.918;4.510;2023-08-30T14:38:47;100164.00;;;20.90
15607;BMP180;7865;50.918;4.510;2023-08-30T14:43:48;100154.00;;;19.30
15607;BMP180;7865;50.918;4.510;2023-08-30T14:48:50;100159.00;;;18.80
15607;BMP180;7865;50.918;4.510;2023-08-30T14:53:51;100162.00;;;19.10
15607;BMP180;7865;50.918;4.510;2023-08-30T14:58:53;100161.00;;;19.80
15607;BMP180;7865;50.918;4.510;2023-08-30T15:03:55;100166.00;;;19.40
15607;BMP180;7865;50.918;4.510;2023-08-30T15:08:56;100174.00;;;19.00
15607;BMP180;7865;50.918;4.510;2023-08-30T15:13:59;100177.00;;;18.80
15607;BMP180;7865;50.918;4.510;2023-08-30T15:19:00;100175.00;;;18.60
15607;BMP180;7865;50.918;4.510;2023-08-30T15:24:02;100183.00;;;18.70
15607;BMP180;7865;50.918;4.510;2023-08-30T15:29:06;100179.00;;;19.20
15607;BMP180;7865;50.918;4.510;2023-08-30T15:34:07;100188.00;;;19.00
15607;BMP180;7865;50.918;4.510;2023-08-30T15:39:08;100195.00;;;18.90
15607;BMP180;7865;50.918;4.510;2023-08-30T15:44:10;100188.00;;;19.10
15607;BMP180;7865;50.918;4.510;2023-08-30T15:49:11;100192.00;;;18.90
15607;BMP180;7865;50.918;4.510;2023-08-30T15:54:12;100195.00;;;18.60
15607;BMP180;7865;50.918;4.510;2023-08-30T15:59:14;100174.00;;;18.40
15607;BMP180;7865;50.918;4.510;2023-08-30T16:04:15;100192.00;;;18.40
15607;BMP180;7865;50.918;4.510;2023-08-30T16:09:17;100201.00;;;18.20
15607;BMP180;7865;50.918;4.510;2023-08-30T16:14:18;100198.00;;;18.10
15607;BMP180;7865;50.918;4.510;2023-08-30T16:19:19;100205.00;;;18.00
15607;BMP180;7865;50.918;4.510;2023-08-30T16:24:23;100211.00;;;18.00
15607;BMP180;7865;50.918;4.510;2023-08-30T16:29:24;100211.00;;;18.00
15607;BMP180;7865;50.918;4.510;2023-08-30T16:34:26;100217.00;;;17.90
15607;BMP180;7865;50.918;4.510;2023-08-30T16:39:27;100211.00;;;17.90
15607;BMP180;7865;50.918;4.510;2023-08-30T16:44:29;100213.00;;;18.00
15607;BMP180;7865;50.918;4.510;2023-08-30T16:49:30;100218.00;;;18.20
15607;BMP180;7865;50.918;4.510;2023-08-30T16:54:32;100223.00;;;18.50
15607;BMP180;7865;50.918;4.510;2023-08-30T16:59:33;100223.00;;;18.30
15607;BMP180;7865;50.918;4.510;2023-08-30T17:04:35;100236.00;;;18.20
15607;BMP180;7865;50.918;4.510;2023-08-30T17:09:38;100226.00;;;17.80
15607;BMP180;7865;50.918;4.510;2023-08-30T17:14:40;100240.00;;;17.50
15607;BMP180;7865;50.918;4.510;2023-08-30T17:19:41;100239.00;;;17.10
15607;BMP180;7865;50.918;4.510;2023-08-30T17:24:43;100237.00;;;16.90
15607;BMP180;7865;50.918;4.510;2023-08-30T17:29:44;100245.00;;;16.80
15607;BMP180;7865;50.918;4.510;2023-08-30T17:34:46;100250.00;;;16.60
15607;BMP180;7865;50.918;4.510;2023-08-30T17:39:49;100253.00;;;16.40
15607;BMP180;7865;50.918;4.510;2023-08-30T17:44:50;100265.00;;;16.40
15607;BMP180;7865;50.918;4.510;2023-08-30T17:50:00;100256.00;;;16.20
15607;BMP180;7865;50.918;4.510;2023-08-30T17:55:01;100263.00;;;16.20
15607;BMP180;7865;50.918;4.510;2023-08-30T18:00:04;100259.00;;;16.10
15607;BMP180;7865;50.918;4.510;2023-08-30T18:05:13;100264.00;;;16.00
15607;BMP180;7865;50.918;4.510;2023-08-30T18:10:14;100273.00;;;15.70
15607;BMP180;7865;50.918;4.510;2023-08-30T18:15:16;100262.00;;;15.50
15607;BMP180;7865;50.918;4.510;2023-08-30T18:20:17;100265.00;;;15.30
15607;BMP180;7865;50.918;4.510;2023-08-30T18:25:19;100257.00;;;15.10
15607;BMP180;7865;50.918;4.510;2023-08-30T18:30:20;100274.00;;;15.00
15607;BMP180;7865;50.918;4.510;2023-08-30T18:35:22;100275.00;;;14.80
15607;BMP180;7865;50.918;4.510;2023-08-30T18:40:23;100287.00;;;14.80
15607;BMP180;7865;50.918;4.510;2023-08-30T18:45:25;100291.00;;;14.80
15607;BMP180;7865;50.918;4.510;2023-08-30T18:50:26;100304.00;;;14.70
15607;BMP180;7865;50.918;4.510;2023-08-30T18:55:28;100300.00;;;14.70
15607;BMP180;7865;50.918;4.510;2023-08-30T19:00:34;100319.00;;;14.70
15607;BMP180;7865;50.918;4.510;2023-08-30T19:05:36;100326.00;;;14.60
15607;BMP180;7865;50.918;4.510;2023-08-30T19:10:40;100338.00;;;14.70
15607;BMP180;7865;50.918;4.510;2023-08-30T19:15:42;100340.00;;;14.70
15607;BMP180;7865;50.918;4.510;2023-08-30T19:20:46;100340.00;;;14.60
15607;BMP180;7865;50.918;4.510;2023-08-30T19:25:55;100338.00;;;14.50
15607;BMP180;7865;50.918;4.510;2023-08-30T19:30:56;100348.00;;;14.50
15607;BMP180;7865;50.918;4.510;2023-08-30T19:35:57;100354.00;;;14.50
15607;BMP180;7865;50.918;4.510;2023-08-30T19:40:58;100353.00;;;14.50
15607;BMP180;7865;50.918;4.510;2023-08-30T19:46:04;100370.00;;;14.60
15607;BMP180;7865;50.918;4.510;2023-08-30T19:51:05;100390.00;;;14.50
15607;BMP180;7865;50.918;4.510;2023-08-30T19:56:07;100405.00;;;14.00
15607;BMP180;7865;50.918;4.510;2023-08-30T20:01:08;100421.00;;;13.50
15607;BMP180;7865;50.918;4.510;2023-08-30T20:06:10;100416.00;;;13.20
15607;BMP180;7865;50.918;4.510;2023-08-30T20:11:11;100412.00;;;13.10
15607;BMP180;7865;50.918;4.510;2023-08-30T20:16:12;100411.00;;;13.10
15607;BMP180;7865;50.918;4.510;2023-08-30T20:21:13;100398.00;;;13.10
15607;BMP180;7865;50.918;4.510;2023-08-30T20:26:15;100404.00;;;13.00
15607;BMP180;7865;50.918;4.510;2023-08-30T20:31:17;100394.00;;;13.00
15607;BMP180;7865;50.918;4.510;2023-08-30T20:36:18;100400.00;;;12.90
15607;BMP180;7865;50.918;4.510;2023-08-30T20:41:31;100417.00;;;12.80
15607;BMP180;7865;50.918;4.510;2023-08-30T20:46:33;100432.00;;;12.70
15607;BMP180;7865;50.918;4.510;2023-08-30T20:51:34;100428.00;;;12.60
15607;BMP180;7865;50.918;4.510;2023-08-30T20:56:36;100422.00;;;12.50
15607;BMP180;7865;50.918;4.510;2023-08-30T21:01:38;100414.00;;;12.40
15607;BMP180;7865;50.918;4.510;2023-08-30T21:06:39;100415.00;;;12.40
15607;BMP180;7865;50.918;4.510;2023-08-30T21:11:40;100407.00;;;12.30
15607;BMP180;7865;50.918;4.510;2023-08-30T21:16:42;100399.00;;;12.30
15607;BMP180;7865;50.918;4.510;2023-08-30T21:21:43;100402.00;;;12.20
15607;BMP180;7865;50.918;4.510;2023-08-30T21:26:44;100389.00;;;12.10
15607;BMP180;7865;50.918;4.510;2023-08-30T21:31:46;100387.00;;;12.10
15607;BMP180;7865;50.918;4.510;2023-08-30T21:36:47;100378.00;;;12.00
15607;BMP180;7865;50.918;4.510;2023-08-30T21:41:49;100379.00;;;12.00
15607;BMP180;7865;50.918;4.510;2023-08-30T21:46:50;100381.00;;;12.00
15607;BMP180;7865;50.918;4.510;2023-08-30T21:51:53;100381.00;;;11.90
15607;BMP180;7865;50.918;4.510;2023-08-30T21:56:54;100370.00;;;12.00
15607;BMP180;7865;50.918;4.510;2023-08-30T22:01:56;100374.00;;;12.00
15607;BMP180;7865;50.918;4.510;2023-08-30T22:06:57;100385.00;;;12.00
15607;BMP180;7865;50.918;4.510;2023-08-30T22:11:58;100388.00;;;12.00
15607;BMP180;7865;50.918;4.510;2023-08-30T22:17:00;100388.00;;;12.00
15607;BMP180;7865;50.918;4.510;2023-08-30T22:22:01;100388.00;;;12.00
15607;BMP180;7865;50.918;4.510;2023-08-30T22:27:03;100374.00;;;12.00
15607;BMP180;7865;50.918;4.510;2023-08-30T22:32:05;100381.00;;;11.80
15607;BMP180;7865;50.918;4.510;2023-08-30T22:37:07;100385.00;;;11.70
15607;BMP180;7865;50.918;4.510;2023-08-30T22:42:08;100376.00;;;11.50
15607;BMP180;7865;50.918;4.510;2023-08-30T22:47:09;100379.00;;;11.40
15607;BMP180;7865;50.918;4.510;2023-08-30T22:52:11;100375.00;;;11.30
15607;BMP180;7865;50.918;4.510;2023-08-30T22:57:13;100378.00;;;11.20
15607;BMP180;7865;50.918;4.510;2023-08-30T23:02:15;100385.00;;;11.20
15607;BMP180;7865;50.918;4.510;2023-08-30T23:07:17;100393.00;;;11.10
15607;BMP180;7865;50.918;4.510;2023-08-30T23:12:18;100385.00;;;11.10
15607;BMP180;7865;50.918;4.510;2023-08-30T23:17:20;100384.00;;;11.10
15607;BMP180;7865;50.918;4.510;2023-08-30T23:22:21;100388.00;;;11.00
15607;BMP180;7865;50.918;4.510;2023-08-30T23:27:23;100394.00;;;11.00
15607;BMP180;7865;50.918;4.510;2023-08-30T23:32:25;100389.00;;;11.00
15607;BMP180;7865;50.918;4.510;2023-08-30T23:37:27;100390.00;;;10.90
15607;BMP180;7865;50.918;4.510;2023-08-30T23:42:29;100407.00;;;10.90
15607;BMP180;7865;50.918;4.510;2023-08-30T23:47:31;100403.00;;;10.90
15607;BMP180;7865;50.918;4.510;2023-08-30T23:52:33;100402.00;;;11.00
15607;BMP180;7865;50.918;4.510;2023-08-30T23:57:34;100400.00;;;10.90
